Weather at Leonard M Thompson International Airport

Public forecast

Using degrees Celsius for public forecast. Weather courtesy of forecast.io.

Closest aviation weather report (METAR) to Leonard M Thompson International Airport

Closest report is Grand Bahama International Airport, 86.6 nm (160.5 km) W. Retrieved 2021/01/17 14:00 UTC (13 minutes ago):

MYGF 171400Z 31006KT 9999 SCT035 BKN050 BKN250 17/11 A3007

Closest aviation forecast (TAF) to Leonard M Thompson International Airport

Forecast is more than 6 hours old.

Closest forecast is Grand Bahama International Airport, 86.6 nm (160.5 km) W. Retrieved 2021/01/17 06:58 UTC (7 hours ago):

TAF MYGF 170410Z 1706/1806 30006KT 9999 FEW035 BKN060